Salisbury, North Carolina
Current Conditions -  °F | °C
As of 12:15 AM on Tuesday 21 Oct 2014 (Local Time) from KRUQ Reporting Station
Overcast Overcast  
Wind Chill: 58°   Ceiling: 10000
Heat Index: 58°   Visibility: 10mi
Dew Point: 51°   Wind: 3mph
Humidity: 78%   Direction: 220°SW
Pressure: 29.98"   Gusts: NA
Location:  35.67°N, 80.47°W
Report Text: KRUQ 210415Z AUTO 22003KT 10SM OVC100 15/11 A2998 RMK AO2 T01450107
Loading
Personal Weather Stations






























Interactive Weather Map
Tropical Storm Tracking
New forecast layout! Learn more

10-Day Weather Forecast

Advertisements
Track Severe Weather on mobile